Time;durP1;ratioP1;P1;durP2;ratioP2;P2;SDS_P1;SDS_P2;PMS_P1;PMS_P2;Temp;Humidity;BMP_temperature;BMP_pressure;BME280_temperature;BME280_humidity;BME280_pressure;Samples;Min_cycle;Max_cycle;Signal;HPM_P1;HPM_P2
2021/08/28 00:17:34;;;;;;;4.60;2.42;;;;;;;;;;4593704;28;20488;-66
2021/08/28 00:20:01;;;;;;;5.07;2.53;;;;;;;;;;4227605;33;20113;-66
2021/08/28 00:22:27;;;;;;;7.15;2.17;;;;;;;;;;4233744;33;20139;-66
2021/08/28 00:24:52;;;;;;;3.47;2.45;;;;;;;;;;4233948;33;20483;-67
2021/08/28 00:27:18;;;;;;;7.80;3.03;;;;;;;;;;4220471;33;20191;-66
2021/08/28 00:29:44;;;;;;;7.07;2.45;;;;;;;;;;4220113;34;20140;-67
2021/08/28 00:32:10;;;;;;;3.20;2.20;;;;;;;;;;4219734;34;20125;-66
2021/08/28 00:34:36;;;;;;;3.72;2.53;;;;;;;;;;4226118;33;20224;-67
2021/08/28 00:37:03;;;;;;;7.53;2.67;;;;;;;;;;4234074;33;20117;-66
2021/08/28 00:39:28;;;;;;;3.05;2.20;;;;;;;;;;4234005;33;20196;-67
2021/08/28 00:41:54;;;;;;;2.50;2.30;;;;;;;;;;4233680;33;20168;-67
2021/08/28 00:44:20;;;;;;;5.07;2.12;;;;;;;;;;4233775;33;20144;-71
2021/08/28 00:46:48;;;;;;;2.60;2.20;;;;;;;;;;4209385;33;20117;-71
2021/08/28 00:49:14;;;;;;;4.00;2.55;;;;;;;;;;4234038;33;20129;-71
2021/08/28 00:51:40;;;;;;;6.28;2.20;;;;;;;;;;4227435;33;20125;-72
2021/08/28 00:54:07;;;;;;;4.78;2.40;;;;;;;;;;4194948;34;20117;-71
2021/08/28 00:56:34;;;;;;;6.40;2.05;;;;;;;;;;4206598;34;20114;-71
2021/08/28 00:59:00;;;;;;;3.95;2.58;;;;;;;;;;4219607;34;20111;-72
2021/08/28 01:01:26;;;;;;;3.67;2.42;;;;;;;;;;4219751;34;20505;-72
2021/08/28 01:03:55;;;;;;;5.93;2.60;;;;;;;;;;4206896;34;20100;-71
2021/08/28 01:06:23;;;;;;;4.25;2.35;;;;;;;;;;4194969;34;20284;-72
2021/08/28 01:09:10;;;;;;;5.75;2.60;;;;;;;;;;4206780;34;20132;-72
2021/08/28 01:11:45;;;;;;;4.97;2.40;;;;;;;;;;4219573;34;20145;-71
2021/08/28 01:14:15;;;;;;;5.03;3.00;;;;;;;;;;4219450;34;20103;-72
2021/08/28 01:16:43;;;;;;;8.32;3.90;;;;;;;;;;4219181;34;20112;-72
2021/08/28 01:19:14;;;;;;;7.90;3.85;;;;;;;;;;4219223;33;20627;-71
2021/08/28 01:21:40;;;;;;;4.90;3.65;;;;;;;;;;4220372;33;20219;-72
2021/08/28 01:24:06;;;;;;;7.25;3.50;;;;;;;;;;4208986;33;20454;-71
2021/08/28 01:26:40;;;;;;;6.18;3.47;;;;;;;;;;4220249;33;20239;-71
2021/08/28 01:29:25;;;;;;;5.82;3.08;;;;;;;;;;4220925;33;20100;-72
2021/08/28 01:31:51;;;;;;;3.78;2.40;;;;;;;;;;4220495;33;20133;-72
2021/08/28 01:34:18;;;;;;;6.35;2.53;;;;;;;;;;4233316;33;20117;-71
2021/08/28 01:36:46;;;;;;;4.07;2.60;;;;;;;;;;4220092;33;20123;-72
2021/08/28 01:39:13;;;;;;;3.85;2.45;;;;;;;;;;4233588;33;20123;-71
2021/08/28 01:41:39;;;;;;;6.95;2.40;;;;;;;;;;4208658;33;20402;-72
2021/08/28 01:44:09;;;;;;;7.18;3.20;;;;;;;;;;4208965;33;20440;-72
2021/08/28 01:46:37;;;;;;;6.25;2.60;;;;;;;;;;4233326;33;20505;-71
2021/08/28 01:49:06;;;;;;;7.28;2.30;;;;;;;;;;4220541;33;20097;-72
2021/08/28 01:51:35;;;;;;;4.45;2.47;;;;;;;;;;4217445;34;20192;-72
2021/08/28 01:54:01;;;;;;;4.97;2.40;;;;;;;;;;4206795;34;20107;-72
2021/08/28 01:56:27;;;;;;;3.60;2.50;;;;;;;;;;4206321;34;20231;-72
2021/08/28 01:58:53;;;;;;;4.85;2.78;;;;;;;;;;4219061;34;20140;-72
2021/08/28 02:01:19;;;;;;;3.30;2.60;;;;;;;;;;4206354;34;20105;-72
2021/08/28 02:03:45;;;;;;;4.87;2.87;;;;;;;;;;4219049;34;20119;-70
2021/08/28 02:06:15;;;;;;;5.20;3.20;;;;;;;;;;4219083;34;20212;-71
2021/08/28 02:08:57;;;;;;;5.93;3.15;;;;;;;;;;4195337;34;20137;-67
2021/08/28 02:11:41;;;;;;;7.03;3.87;;;;;;;;;;4218837;34;20136;-67
2021/08/28 02:14:15;;;;;;;9.00;3.85;;;;;;;;;;4194980;34;20117;-67
2021/08/28 02:16:42;;;;;;;11.98;4.62;;;;;;;;;;4206101;34;20137;-68
2021/08/28 02:19:29;;;;;;;7.03;3.20;;;;;;;;;;4210111;33;20465;-68
2021/08/28 02:21:55;;;;;;;7.07;2.83;;;;;;;;;;4219786;33;20304;-68
2021/08/28 02:24:31;;;;;;;3.50;2.95;;;;;;;;;;4219845;33;20124;-68
2021/08/28 02:27:23;;;;;;;3.62;2.70;;;;;;;;;;4220097;33;20596;-68
2021/08/28 02:30:18;;;;;;;3.50;3.05;;;;;;;;;;4231695;33;20097;-67
2021/08/28 02:32:50;;;;;;;4.93;2.90;;;;;;;;;;4220798;33;20139;-68
2021/08/28 02:35:16;;;;;;;3.90;2.80;;;;;;;;;;4219816;33;20123;-68
2021/08/28 02:37:43;;;;;;;5.97;3.67;;;;;;;;;;4231224;33;20105;-68
2021/08/28 02:40:10;;;;;;;9.80;3.45;;;;;;;;;;4219780;33;20199;-67
2021/08/28 02:42:40;;;;;;;5.35;2.67;;;;;;;;;;4219938;33;20528;-68
2021/08/28 02:45:07;;;;;;;5.90;2.87;;;;;;;;;;4219694;33;20122;-68
2021/08/28 02:47:35;;;;;;;9.38;4.20;;;;;;;;;;4219904;33;20088;-68
2021/08/28 02:50:02;;;;;;;12.93;2.90;;;;;;;;;;4231598;33;20444;-68
2021/08/28 02:52:29;;;;;;;4.65;2.83;;;;;;;;;;4219834;33;20109;-67
2021/08/28 02:54:58;;;;;;;4.47;2.70;;;;;;;;;;4219575;33;20129;-68
2021/08/28 02:57:25;;;;;;;6.93;2.90;;;;;;;;;;4219793;33;20216;-67
2021/08/28 02:59:51;;;;;;;5.93;3.22;;;;;;;;;;4219865;33;20105;-68
2021/08/28 03:02:17;;;;;;;8.23;3.00;;;;;;;;;;4219403;33;20120;-69
2021/08/28 03:04:44;;;;;;;5.53;3.35;;;;;;;;;;4231089;33;20212;-68
2021/08/28 03:07:10;;;;;;;15.35;3.53;;;;;;;;;;4219345;33;20119;-68
2021/08/28 03:09:36;;;;;;;5.57;2.92;;;;;;;;;;4231009;33;20180;-67
2021/08/28 03:12:02;;;;;;;4.97;3.00;;;;;;;;;;4219423;33;20113;-67
2021/08/28 03:14:28;;;;;;;4.03;2.90;;;;;;;;;;4232291;33;20204;-68
2021/08/28 03:16:54;;;;;;;7.87;3.08;;;;;;;;;;4219210;33;20093;-68
2021/08/28 03:19:22;;;;;;;5.20;3.25;;;;;;;;;;4233024;33;20119;-68
2021/08/28 03:21:48;;;;;;;3.78;2.80;;;;;;;;;;4221797;33;20117;-69
2021/08/28 03:24:14;;;;;;;5.30;3.08;;;;;;;;;;4221759;33;20136;-68
2021/08/28 03:26:40;;;;;;;7.70;2.90;;;;;;;;;;4210041;33;20113;-69
2021/08/28 03:29:06;;;;;;;5.68;2.97;;;;;;;;;;4209831;33;20131;-69
2021/08/28 03:31:32;;;;;;;5.07;3.15;;;;;;;;;;4234455;33;20129;-69
2021/08/28 03:33:59;;;;;;;7.05;3.12;;;;;;;;;;4221221;33;20136;-68
2021/08/28 03:36:25;;;;;;;12.15;3.50;;;;;;;;;;4221195;33;20124;-69
2021/08/28 03:38:51;;;;;;;8.80;3.78;;;;;;;;;;4233897;33;20119;-69
2021/08/28 03:41:17;;;;;;;6.55;3.00;;;;;;;;;;4221057;33;20208;-68
2021/08/28 03:43:46;;;;;;;4.47;3.20;;;;;;;;;;4220926;33;20109;-68
2021/08/28 03:46:15;;;;;;;8.35;3.30;;;;;;;;;;4233748;33;20195;-68
2021/08/28 03:48:41;;;;;;;5.78;2.87;;;;;;;;;;4209907;33;20224;-69
2021/08/28 03:51:07;;;;;;;3.92;2.92;;;;;;;;;;4234117;33;20133;-69
2021/08/28 03:53:33;;;;;;;9.52;3.40;;;;;;;;;;4234415;33;20134;-69
2021/08/28 03:55:59;;;;;;;5.12;3.00;;;;;;;;;;4233854;33;20125;-69
2021/08/28 03:58:25;;;;;;;11.02;3.72;;;;;;;;;;4231853;33;20180;-69
2021/08/28 04:00:51;;;;;;;6.90;3.60;;;;;;;;;;4221124;33;20124;-69
2021/08/28 04:03:18;;;;;;;5.55;3.45;;;;;;;;;;4220970;33;20105;-69
2021/08/28 04:05:44;;;;;;;5.25;3.40;;;;;;;;;;4234382;33;20117;-70
2021/08/28 04:08:10;;;;;;;6.50;3.83;;;;;;;;;;4234177;33;20117;-69
2021/08/28 04:10:36;;;;;;;6.45;3.72;;;;;;;;;;4234270;33;20112;-69
2021/08/28 04:13:02;;;;;;;6.57;3.20;;;;;;;;;;4220883;33;20179;-68
2021/08/28 04:15:28;;;;;;;5.97;3.05;;;;;;;;;;4232098;33;20144;-69
2021/08/28 04:17:55;;;;;;;5.82;3.08;;;;;;;;;;4233206;33;20101;-67
2021/08/28 04:20:20;;;;;;;5.60;3.28;;;;;;;;;;4233435;33;20599;-68
2021/08/28 04:22:46;;;;;;;7.55;3.00;;;;;;;;;;4233830;33;20120;-68
2021/08/28 04:25:12;;;;;;;5.03;2.78;;;;;;;;;;4234043;33;20132;-68
2021/08/28 04:27:38;;;;;;;6.62;3.65;;;;;;;;;;4220699;33;20105;-68
2021/08/28 04:30:05;;;;;;;8.05;3.42;;;;;;;;;;4233046;33;20196;-70
2021/08/28 04:32:31;;;;;;;4.22;2.97;;;;;;;;;;4233751;33;20204;-69
2021/08/28 04:34:57;;;;;;;8.07;3.65;;;;;;;;;;4233751;33;20633;-68
2021/08/28 04:37:23;;;;;;;7.25;3.45;;;;;;;;;;4234003;33;20145;-66
2021/08/28 04:39:49;;;;;;;5.57;2.60;;;;;;;;;;4234025;33;20236;-66
2021/08/28 04:42:15;;;;;;;8.48;3.70;;;;;;;;;;4233825;33;20128;-66
2021/08/28 04:44:41;;;;;;;8.25;2.90;;;;;;;;;;4209499;33;20211;-67
2021/08/28 04:47:07;;;;;;;6.15;3.42;;;;;;;;;;4233892;33;20127;-67
2021/08/28 04:49:32;;;;;;;4.35;3.12;;;;;;;;;;4233891;33;20532;-67
2021/08/28 04:51:59;;;;;;;7.65;3.00;;;;;;;;;;4233415;33;20132;-67
2021/08/28 04:54:25;;;;;;;5.90;3.10;;;;;;;;;;4233633;33;20131;-67
2021/08/28 04:56:52;;;;;;;6.97;3.83;;;;;;;;;;4233494;33;20124;-68
2021/08/28 04:59:18;;;;;;;8.82;3.42;;;;;;;;;;4233561;33;20113;-68
2021/08/28 05:01:44;;;;;;;6.12;3.03;;;;;;;;;;4233507;33;20200;-66
2021/08/28 05:04:10;;;;;;;4.60;2.95;;;;;;;;;;4233800;33;20144;-66
2021/08/28 05:06:36;;;;;;;10.48;2.97;;;;;;;;;;4233706;33;20529;-68
2021/08/28 05:09:02;;;;;;;4.93;3.10;;;;;;;;;;4233488;33;20133;-67
2021/08/28 05:11:28;;;;;;;8.85;2.85;;;;;;;;;;4233493;33;20140;-67
2021/08/28 05:13:54;;;;;;;14.52;3.85;;;;;;;;;;4233614;33;20450;-67
2021/08/28 05:16:20;;;;;;;3.60;2.53;;;;;;;;;;4233157;33;20131;-66
2021/08/28 05:18:46;;;;;;;6.82;3.75;;;;;;;;;;4233358;33;20123;-67
2021/08/28 05:21:12;;;;;;;7.07;3.00;;;;;;;;;;4233257;33;20129;-68
2021/08/28 05:23:38;;;;;;;7.10;3.30;;;;;;;;;;4233352;33;20132;-68
2021/08/28 05:26:04;;;;;;;4.32;2.90;;;;;;;;;;4220546;33;20132;-68
2021/08/28 05:28:29;;;;;;;5.75;3.70;;;;;;;;;;4233255;33;20543;-68
2021/08/28 05:30:55;;;;;;;8.45;3.20;;;;;;;;;;4233386;33;20129;-68
2021/08/28 05:33:21;;;;;;;5.65;3.45;;;;;;;;;;4233117;33;20120;-68
2021/08/28 05:35:47;;;;;;;5.30;3.25;;;;;;;;;;4233327;33;20520;-68
2021/08/28 05:38:13;;;;;;;7.65;3.05;;;;;;;;;;4233527;33;20109;-66
2021/08/28 05:40:39;;;;;;;5.03;3.22;;;;;;;;;;4233177;33;20120;-71
2021/08/28 05:43:05;;;;;;;6.15;3.00;;;;;;;;;;4233290;33;20093;-67
2021/08/28 05:45:31;;;;;;;6.68;3.20;;;;;;;;;;4233161;33;20184;-66
2021/08/28 05:47:56;;;;;;;6.68;3.10;;;;;;;;;;4233103;33;20125;-66
2021/08/28 05:50:22;;;;;;;3.70;2.58;;;;;;;;;;4233221;33;20109;-72
2021/08/28 05:52:48;;;;;;;3.55;2.95;;;;;;;;;;4233086;33;20536;-66
2021/08/28 05:55:14;;;;;;;9.07;2.87;;;;;;;;;;4233240;33;20139;-68
2021/08/28 05:57:41;;;;;;;12.30;3.60;;;;;;;;;;4233008;33;20122;-66
2021/08/28 06:00:07;;;;;;;5.47;3.17;;;;;;;;;;4231717;33;20635;-67
2021/08/28 06:02:36;;;;;;;9.35;3.58;;;;;;;;;;4233256;33;20461;-78
2021/08/28 06:05:08;;;;;;;8.48;3.05;;;;;;;;;;4233092;33;20441;-74
2021/08/28 06:07:34;;;;;;;4.25;3.08;;;;;;;;;;4220294;33;20132;-74
2021/08/28 06:10:00;;;;;;;5.30;3.30;;;;;;;;;;4233113;33;20128;-74
2021/08/28 06:12:26;;;;;;;7.68;3.05;;;;;;;;;;4220117;33;20169;-74
2021/08/28 06:14:52;;;;;;;4.20;2.40;;;;;;;;;;4231818;33;20112;-75
2021/08/28 06:17:18;;;;;;;10.75;3.22;;;;;;;;;;4219938;33;20469;-76
2021/08/28 06:19:44;;;;;;;4.15;2.87;;;;;;;;;;4232898;33;20156;-71
2021/08/28 06:22:10;;;;;;;10.05;3.25;;;;;;;;;;4219731;33;20582;-71
2021/08/28 06:24:35;;;;;;;7.97;2.85;;;;;;;;;;4232930;33;20540;-71
2021/08/28 06:27:03;;;;;;;7.37;3.10;;;;;;;;;;4219990;33;20157;-72
2021/08/28 06:29:29;;;;;;;5.55;3.25;;;;;;;;;;4232732;33;20113;-73
2021/08/28 06:31:55;;;;;;;5.20;2.97;;;;;;;;;;4232500;33;20109;-72
2021/08/28 06:34:21;;;;;;;12.40;3.60;;;;;;;;;;4232928;33;20129;-69
2021/08/28 06:36:47;;;;;;;8.55;4.15;;;;;;;;;;4231318;33;20128;-69
2021/08/28 06:39:12;;;;;;;9.13;4.30;;;;;;;;;;4232688;33;20533;-71
2021/08/28 06:41:38;;;;;;;5.30;2.50;;;;;;;;;;4232631;33;20112;-69
2021/08/28 06:44:04;;;;;;;3.50;2.50;;;;;;;;;;4232685;33;20125;-71
2021/08/28 06:46:31;;;;;;;8.45;2.47;;;;;;;;;;4232700;33;20184;-71
2021/08/28 06:48:57;;;;;;;3.55;2.53;;;;;;;;;;4231165;33;20200;-70
2021/08/28 06:51:23;;;;;;;5.53;2.95;;;;;;;;;;4219663;33;20085;-70
2021/08/28 06:53:49;;;;;;;6.30;2.90;;;;;;;;;;4232271;33;20128;-69
2021/08/28 06:56:16;;;;;;;3.15;2.53;;;;;;;;;;4232337;33;20544;-69
2021/08/28 06:58:42;;;;;;;14.15;2.87;;;;;;;;;;4219648;33;20110;-69
2021/08/28 07:01:08;;;;;;;3.95;2.60;;;;;;;;;;4232376;33;20116;-69
2021/08/28 07:03:34;;;;;;;8.48;3.35;;;;;;;;;;4219293;33;20139;-71
2021/08/28 07:06:00;;;;;;;6.93;2.62;;;;;;;;;;4219465;33;20131;-69
2021/08/28 07:08:26;;;;;;;9.07;3.62;;;;;;;;;;4232398;33;20108;-68
2021/08/28 07:10:52;;;;;;;6.80;2.83;;;;;;;;;;4232358;33;20434;-68
2021/08/28 07:13:18;;;;;;;6.95;3.12;;;;;;;;;;4231945;33;20096;-68
2021/08/28 07:15:44;;;;;;;4.45;2.50;;;;;;;;;;4232374;33;20112;-69
2021/08/28 07:18:11;;;;;;;7.68;3.05;;;;;;;;;;4230630;33;20125;-69
2021/08/28 07:20:38;;;;;;;7.65;2.58;;;;;;;;;;4232244;33;20512;-69
2021/08/28 07:23:04;;;;;;;6.90;3.22;;;;;;;;;;4219108;33;20117;-68
2021/08/28 07:25:30;;;;;;;5.45;2.65;;;;;;;;;;4219472;33;20117;-71
2021/08/28 07:27:56;;;;;;;3.70;2.62;;;;;;;;;;4232370;33;20286;-70
2021/08/28 07:30:22;;;;;;;8.00;3.75;;;;;;;;;;4232376;33;20858;-70
2021/08/28 07:32:48;;;;;;;5.80;2.72;;;;;;;;;;4232173;33;20117;-69
2021/08/28 07:35:14;;;;;;;4.97;3.00;;;;;;;;;;4232100;33;20112;-68
2021/08/28 07:37:40;;;;;;;7.50;3.60;;;;;;;;;;4232483;33;20666;-69
2021/08/28 07:40:07;;;;;;;12.90;3.42;;;;;;;;;;4232144;33;20197;-69
2021/08/28 07:42:33;;;;;;;5.93;2.78;;;;;;;;;;4232075;33;20546;-68
2021/08/28 07:44:59;;;;;;;5.75;2.90;;;;;;;;;;4232031;33;20129;-67
2021/08/28 07:47:25;;;;;;;11.10;3.97;;;;;;;;;;4232082;33;20109;-68
2021/08/28 07:49:50;;;;;;;6.12;3.53;;;;;;;;;;4232074;33;20540;-69
2021/08/28 07:52:18;;;;;;;5.80;3.28;;;;;;;;;;4207649;33;20176;-67
2021/08/28 07:54:45;;;;;;;6.97;2.67;;;;;;;;;;4232085;33;20124;-67
2021/08/28 07:57:12;;;;;;;7.65;2.90;;;;;;;;;;4232044;33;20101;-67
2021/08/28 07:59:38;;;;;;;11.27;3.95;;;;;;;;;;4231929;33;20203;-68
2021/08/28 08:02:04;;;;;;;5.80;3.40;;;;;;;;;;4231847;33;20169;-67
2021/08/28 08:04:30;;;;;;;8.50;2.92;;;;;;;;;;4233202;33;20096;-67
2021/08/28 08:06:56;;;;;;;4.82;3.37;;;;;;;;;;4220936;33;20094;-67
2021/08/28 08:09:22;;;;;;;11.65;3.83;;;;;;;;;;4233869;33;20136;-67
2021/08/28 08:11:48;;;;;;;6.43;3.67;;;;;;;;;;4233881;33;20112;-66
2021/08/28 08:14:14;;;;;;;9.98;3.45;;;;;;;;;;4233866;33;20141;-67
2021/08/28 08:16:40;;;;;;;7.28;3.17;;;;;;;;;;4220722;33;20204;-68
2021/08/28 08:19:05;;;;;;;4.25;2.60;;;;;;;;;;4234143;33;20529;-67
2021/08/28 08:21:31;;;;;;;3.90;2.80;;;;;;;;;;4233166;33;20849;-67
2021/08/28 08:23:57;;;;;;;4.93;3.60;;;;;;;;;;4227469;33;20259;-67
2021/08/28 08:26:23;;;;;;;5.70;2.58;;;;;;;;;;4223542;33;20124;-67
2021/08/28 08:28:49;;;;;;;7.12;2.85;;;;;;;;;;4233877;33;20643;-67
2021/08/28 08:31:15;;;;;;;6.60;3.20;;;;;;;;;;4226805;33;20172;-67
2021/08/28 08:33:41;;;;;;;5.75;3.15;;;;;;;;;;4219784;34;20510;-68
2021/08/28 08:36:07;;;;;;;7.72;2.87;;;;;;;;;;4206850;34;20097;-66
2021/08/28 08:38:33;;;;;;;6.15;2.95;;;;;;;;;;4219702;34;20161;-66
2021/08/28 08:40:59;;;;;;;6.35;3.40;;;;;;;;;;4206857;34;20552;-66
2021/08/28 08:43:25;;;;;;;5.95;3.25;;;;;;;;;;4206816;34;20132;-67
2021/08/28 08:45:51;;;;;;;5.12;2.78;;;;;;;;;;4207070;34;20127;-66
2021/08/28 08:48:17;;;;;;;5.80;3.60;;;;;;;;;;4219531;34;20110;-67
2021/08/28 08:50:46;;;;;;;18.92;4.25;;;;;;;;;;4195367;34;20129;-66
2021/08/28 08:53:12;;;;;;;6.72;3.85;;;;;;;;;;4195132;34;20477;-67
2021/08/28 08:55:37;;;;;;;5.60;2.60;;;;;;;;;;4206686;33;20125;-68
2021/08/28 08:58:03;;;;;;;5.62;3.35;;;;;;;;;;4233563;33;20124;-68
2021/08/28 09:00:29;;;;;;;7.50;3.30;;;;;;;;;;4220521;33;20470;-67
2021/08/28 09:02:55;;;;;;;4.72;3.10;;;;;;;;;;4233656;33;20097;-68
2021/08/28 09:05:21;;;;;;;7.95;3.10;;;;;;;;;;4233786;33;20139;-71
2021/08/28 09:07:47;;;;;;;4.80;3.03;;;;;;;;;;4233628;33;20105;-72
2021/08/28 09:10:13;;;;;;;7.43;3.10;;;;;;;;;;4233571;33;20113;-72
2021/08/28 09:12:40;;;;;;;5.05;3.90;;;;;;;;;;4220194;33;20204;-71
2021/08/28 09:15:08;;;;;;;5.30;3.22;;;;;;;;;;4232910;33;20445;-71
2021/08/28 09:17:34;;;;;;;5.93;3.00;;;;;;;;;;4233333;33;20125;-72
2021/08/28 09:20:01;;;;;;;7.15;3.30;;;;;;;;;;4233484;33;20112;-72
2021/08/28 09:22:39;;;;;;;6.75;3.35;;;;;;;;;;4233397;33;20109;-74
2021/08/28 09:25:06;;;;;;;3.40;2.80;;;;;;;;;;4220824;33;20128;-73
2021/08/28 09:27:42;;;;;;;5.65;2.70;;;;;;;;;;4233317;33;20128;-70
2021/08/28 09:30:17;;;;;;;6.32;2.92;;;;;;;;;;4233509;33;20112;-71
2021/08/28 09:32:51;;;;;;;3.47;2.65;;;;;;;;;;4232886;33;20690;-71
2021/08/28 09:35:18;;;;;;;7.10;3.28;;;;;;;;;;4232456;33;20090;-70
2021/08/28 09:37:57;;;;;;;5.03;2.80;;;;;;;;;;4232978;33;20223;-70
2021/08/28 09:40:28;;;;;;;9.55;3.30;;;;;;;;;;4233211;33;20184;-70
2021/08/28 09:42:56;;;;;;;6.05;3.10;;;;;;;;;;4233384;33;20120;-70
2021/08/28 09:45:22;;;;;;;5.95;2.90;;;;;;;;;;4233259;33;20228;-70
2021/08/28 09:47:49;;;;;;;5.87;3.00;;;;;;;;;;4233135;33;20116;-70
2021/08/28 09:50:23;;;;;;;5.20;3.25;;;;;;;;;;4218335;33;20212;-69
2021/08/28 09:52:49;;;;;;;5.93;3.40;;;;;;;;;;4231080;33;20457;-69
2021/08/28 09:55:15;;;;;;;5.68;2.30;;;;;;;;;;4231280;33;20187;-69
2021/08/28 09:57:41;;;;;;;9.18;3.30;;;;;;;;;;4224175;33;20213;-70
2021/08/28 10:00:07;;;;;;;5.53;2.92;;;;;;;;;;4217453;34;20441;-70
2021/08/28 10:02:33;;;;;;;3.78;2.72;;;;;;;;;;4217025;34;20125;-70
2021/08/28 10:04:59;;;;;;;4.87;2.95;;;;;;;;;;4218267;34;20135;-70
2021/08/28 10:07:26;;;;;;;5.18;3.30;;;;;;;;;;4206180;34;20216;-70
2021/08/28 10:09:54;;;;;;;4.68;3.10;;;;;;;;;;4219314;34;20118;-69
2021/08/28 10:12:20;;;;;;;6.32;3.35;;;;;;;;;;4218709;34;20124;-70
2021/08/28 10:14:50;;;;;;;4.18;3.20;;;;;;;;;;4218989;34;20122;-70
2021/08/28 10:17:17;;;;;;;7.05;3.00;;;;;;;;;;4205886;34;20137;-70
2021/08/28 10:19:43;;;;;;;5.40;3.50;;;;;;;;;;4206041;34;20128;-69
2021/08/28 10:22:10;;;;;;;6.70;3.17;;;;;;;;;;4206009;34;20212;-70
2021/08/28 10:24:36;;;;;;;10.55;3.20;;;;;;;;;;4198565;34;20097;-70
2021/08/28 10:27:02;;;;;;;3.40;2.50;;;;;;;;;;4218022;34;20104;-70
2021/08/28 10:29:28;;;;;;;6.40;2.53;;;;;;;;;;4219022;34;20151;-70
2021/08/28 10:31:54;;;;;;;5.32;3.17;;;;;;;;;;4206041;34;20105;-70
2021/08/28 10:34:20;;;;;;;3.67;2.80;;;;;;;;;;4218734;34;20211;-70
2021/08/28 10:36:46;;;;;;;4.32;2.65;;;;;;;;;;4205768;34;20117;-70
2021/08/28 10:39:12;;;;;;;3.95;2.83;;;;;;;;;;4218737;34;20117;-70
2021/08/28 10:41:38;;;;;;;6.25;2.40;;;;;;;;;;4205751;34;20131;-70
2021/08/28 10:44:04;;;;;;;5.18;2.95;;;;;;;;;;4205860;34;20117;-70
2021/08/28 10:46:31;;;;;;;4.37;2.37;;;;;;;;;;4205571;34;20200;-70
2021/08/28 10:49:00;;;;;;;4.72;2.80;;;;;;;;;;4205872;34;20105;-70
2021/08/28 10:51:34;;;;;;;5.65;3.55;;;;;;;;;;4205919;34;20153;-70
2021/08/28 10:54:08;;;;;;;4.18;3.33;;;;;;;;;;4218665;34;20111;-70
2021/08/28 10:56:54;;;;;;;4.03;3.10;;;;;;;;;;4218679;34;20108;-70
2021/08/28 10:59:23;;;;;;;;;;;;;;;;;;4219021;34;20442;-70
2021/08/28 11:02:07;;;;;;;5.90;3.03;;;;;;;;;;4205524;34;20060;-70
2021/08/28 11:04:43;;;;;;;4.12;2.62;;;;;;;;;;4218570;34;20620;-70
2021/08/28 11:07:39;;;;;;;6.25;2.45;;;;;;;;;;4205422;34;20088;-71
2021/08/28 11:10:23;;;;;;;4.00;2.62;;;;;;;;;;4218684;34;20101;-70
2021/08/28 11:12:57;;;;;;;3.37;2.80;;;;;;;;;;4218322;34;20536;-70
2021/08/28 11:15:35;;;;;;;6.10;3.58;;;;;;;;;;4218412;34;20097;-70
2021/08/28 11:18:02;;;;;;;6.87;3.55;;;;;;;;;;4218227;34;20121;-70
2021/08/28 11:20:35;;;;;;;4.85;2.80;;;;;;;;;;4218307;34;20208;-70
2021/08/28 11:23:02;;;;;;;15.07;3.40;;;;;;;;;;4206767;34;20117;-70
2021/08/28 11:25:28;;;;;;;7.95;3.08;;;;;;;;;;4229634;33;20088;-70
2021/08/28 11:27:55;;;;;;;5.60;3.62;;;;;;;;;;4231120;33;20107;-70
2021/08/28 11:30:51;;;;;;;9.15;3.47;;;;;;;;;;4232238;33;20133;-70
2021/08/28 11:33:22;;;;;;;6.57;3.40;;;;;;;;;;4232240;33;20201;-70
2021/08/28 11:35:52;;;;;;;13.95;3.00;;;;;;;;;;4232237;33;20109;-70
2021/08/28 11:38:24;;;;;;;5.65;3.10;;;;;;;;;;4232379;33;20513;-70
2021/08/28 11:41:01;;;;;;;5.35;2.72;;;;;;;;;;4234367;33;20120;-70
2021/08/28 11:43:34;;;;;;;6.60;2.80;;;;;;;;;;4234161;33;20090;-70
2021/08/28 11:46:04;;;;;;;6.12;3.03;;;;;;;;;;4234352;33;20124;-70
2021/08/28 11:48:31;;;;;;;6.78;2.72;;;;;;;;;;4234425;33;20549;-70
2021/08/28 11:50:58;;;;;;;6.32;2.87;;;;;;;;;;4221444;33;20112;-70
2021/08/28 11:53:27;;;;;;;6.80;3.10;;;;;;;;;;4234087;33;20251;-70
2021/08/28 11:56:13;;;;;;;20.58;3.25;;;;;;;;;;4234336;33;20105;-70
2021/08/28 11:59:02;;;;;;;5.00;2.70;;;;;;;;;;4234182;33;20085;-70
2021/08/28 12:01:41;;;;;;;5.82;3.22;;;;;;;;;;4232728;33;20098;-70
2021/08/28 12:04:11;;;;;;;8.00;3.15;;;;;;;;;;4234437;33;20213;-70
2021/08/28 12:06:42;;;;;;;5.22;4.22;;;;;;;;;;4232843;33;20113;-69
2021/08/28 12:09:09;;;;;;;4.72;3.60;;;;;;;;;;4233062;33;20219;-69
2021/08/28 12:11:36;;;;;;;3.92;2.17;;;;;;;;;;4233893;33;20121;-69
2021/08/28 12:14:04;;;;;;;6.50;3.40;;;;;;;;;;4234047;33;20094;-69
2021/08/28 12:16:31;;;;;;;5.95;2.87;;;;;;;;;;4233721;33;20555;-69
2021/08/28 12:19:04;;;;;;;4.43;2.97;;;;;;;;;;4234004;33;20465;-69
2021/08/28 12:21:32;;;;;;;3.47;2.50;;;;;;;;;;4234048;33;20097;-70
2021/08/28 12:24:16;;;;;;;3.75;2.83;;;;;;;;;;4233948;33;20213;-69
2021/08/28 12:26:51;;;;;;;7.05;3.17;;;;;;;;;;4234117;33;20121;-69
2021/08/28 12:29:26;;;;;;;3.97;2.90;;;;;;;;;;4234030;33;20200;-69
2021/08/28 12:31:54;;;;;;;4.10;2.37;;;;;;;;;;4233787;33;20128;-69
2021/08/28 12:34:21;;;;;;;7.00;3.28;;;;;;;;;;4221026;33;20099;-69
2021/08/28 12:36:47;;;;;;;3.87;2.67;;;;;;;;;;4220983;33;20113;-70
2021/08/28 12:39:13;;;;;;;4.37;3.35;;;;;;;;;;4234056;33;20608;-70
2021/08/28 12:41:39;;;;;;;5.10;3.60;;;;;;;;;;4233638;33;20123;-70
2021/08/28 12:44:05;;;;;;;5.28;3.37;;;;;;;;;;4234042;33;20152;-70
2021/08/28 12:46:33;;;;;;;4.37;3.47;;;;;;;;;;4233668;33;20192;-70
2021/08/28 12:49:31;;;;;;;5.87;3.45;;;;;;;;;;4232348;33;20181;-70
2021/08/28 12:52:03;;;;;;;6.22;3.28;;;;;;;;;;4201621;33;20133;-70
2021/08/28 12:54:30;;;;;;;17.02;4.20;;;;;;;;;;4233778;33;20117;-70
2021/08/28 12:57:21;;;;;;;6.20;3.30;;;;;;;;;;4233778;33;20105;-70
2021/08/28 12:59:51;;;;;;;4.90;3.62;;;;;;;;;;4228460;33;20441;-70
2021/08/28 13:02:21;;;;;;;7.53;3.60;;;;;;;;;;4233761;33;20180;-70
2021/08/28 13:04:48;;;;;;;3.53;2.50;;;;;;;;;;4233879;33;20103;-70
2021/08/28 13:07:35;;;;;;;4.30;3.42;;;;;;;;;;4233559;33;20528;-70
2021/08/28 13:10:14;;;;;;;8.05;3.45;;;;;;;;;;4233334;33;20109;-70
2021/08/28 13:13:03;;;;;;;5.90;3.08;;;;;;;;;;4232270;33;20520;-70
2021/08/28 13:15:30;;;;;;;5.15;3.70;;;;;;;;;;4233768;33;20113;-70
2021/08/28 13:17:57;;;;;;;8.18;3.20;;;;;;;;;;4233425;33;20113;-70
2021/08/28 13:20:47;;;;;;;3.58;2.72;;;;;;;;;;4233761;33;20089;-70
2021/08/28 13:23:14;;;;;;;10.95;2.95;;;;;;;;;;4226791;33;20223;-70
2021/08/28 13:25:42;;;;;;;5.00;3.05;;;;;;;;;;4233672;33;20100;-70
2021/08/28 13:28:21;;;;;;;6.05;3.00;;;;;;;;;;4233588;33;20124;-70
2021/08/28 13:30:49;;;;;;;7.72;4.00;;;;;;;;;;4233716;33;20090;-70
2021/08/28 13:33:26;;;;;;;5.75;3.37;;;;;;;;;;4233188;33;20181;-70
2021/08/28 13:35:54;;;;;;;7.25;3.50;;;;;;;;;;4233649;33;20216;-70
2021/08/28 13:38:21;;;;;;;7.35;3.80;;;;;;;;;;4233374;33;20117;-70
2021/08/28 13:40:47;;;;;;;6.80;3.55;;;;;;;;;;4233300;33;20192;-70
2021/08/28 13:43:13;;;;;;;6.60;3.85;;;;;;;;;;4233311;33;20136;-70
2021/08/28 13:45:38;;;;;;;6.60;4.87;;;;;;;;;;4231923;33;20210;-70
2021/08/28 13:48:05;;;;;;;5.25;3.75;;;;;;;;;;4233269;33;20648;-70
2021/08/28 13:50:31;;;;;;;5.43;3.60;;;;;;;;;;4233209;33;20227;-70
2021/08/28 13:52:56;;;;;;;7.40;3.65;;;;;;;;;;4233191;33;20116;-70
2021/08/28 13:55:22;;;;;;;5.28;2.90;;;;;;;;;;4233187;33;20120;-71
2021/08/28 13:57:48;;;;;;;6.22;4.40;;;;;;;;;;4233062;33;20093;-70
2021/08/28 14:00:15;;;;;;;9.35;4.75;;;;;;;;;;4233731;33;20486;-70
2021/08/28 14:02:41;;;;;;;9.48;5.20;;;;;;;;;;4232963;33;20109;-70
2021/08/28 14:05:08;;;;;;;10.60;4.03;;;;;;;;;;4220092;33;20124;-71
2021/08/28 14:07:34;;;;;;;12.35;5.57;;;;;;;;;;4220373;33;20113;-70
2021/08/28 14:10:00;;;;;;;9.55;4.03;;;;;;;;;;4233002;33;20131;-69
2021/08/28 14:12:26;;;;;;;8.82;3.75;;;;;;;;;;4231470;33;20120;-70
2021/08/28 14:14:52;;;;;;;9.02;4.70;;;;;;;;;;4233243;33;20120;-70
2021/08/28 14:17:18;;;;;;;11.68;4.72;;;;;;;;;;4232880;33;20186;-69
2021/08/28 14:19:44;;;;;;;5.18;3.35;;;;;;;;;;4233002;33;20136;-70
2021/08/28 14:22:10;;;;;;;8.70;4.40;;;;;;;;;;4232868;33;20453;-69
2021/08/28 14:24:36;;;;;;;4.60;3.75;;;;;;;;;;4233357;33;20162;-69
2021/08/28 14:27:02;;;;;;;5.60;4.07;;;;;;;;;;4232859;33;20104;-69
2021/08/28 14:29:29;;;;;;;8.95;3.92;;;;;;;;;;4233209;33;20577;-70
2021/08/28 14:31:56;;;;;;;9.00;4.90;;;;;;;;;;4220138;33;20116;-71
2021/08/28 14:34:22;;;;;;;9.32;4.80;;;;;;;;;;4231479;33;20128;-71
2021/08/28 14:36:48;;;;;;;7.32;3.55;;;;;;;;;;4233040;33;20120;-70
2021/08/28 14:39:14;;;;;;;9.27;3.78;;;;;;;;;;4231391;33;20216;-70
2021/08/28 14:41:40;;;;;;;11.20;4.37;;;;;;;;;;4232652;33;20468;-69
2021/08/28 14:44:08;;;;;;;11.80;4.47;;;;;;;;;;4232769;33;20148;-70
2021/08/28 14:46:34;;;;;;;7.55;4.18;;;;;;;;;;4232811;33;20113;-69
2021/08/28 14:49:01;;;;;;;9.23;4.47;;;;;;;;;;4232892;33;20521;-69
2021/08/28 14:51:27;;;;;;;10.05;4.28;;;;;;;;;;4219562;33;20212;-70
2021/08/28 14:53:53;;;;;;;17.70;5.80;;;;;;;;;;4232747;33;20126;-69
2021/08/28 14:56:19;;;;;;;5.32;3.45;;;;;;;;;;4232436;33;20113;-70
2021/08/28 14:58:46;;;;;;;9.82;4.35;;;;;;;;;;4231049;33;20113;-69
2021/08/28 15:01:12;;;;;;;7.97;3.83;;;;;;;;;;4232395;33;20136;-69
2021/08/28 15:03:38;;;;;;;7.40;4.43;;;;;;;;;;4232493;33;20108;-69
2021/08/28 15:06:06;;;;;;;9.48;4.55;;;;;;;;;;4219592;33;20128;-70